Rose City, MI (48654)

4:21 PM EDT on April 27, 2017 (GMT -0400)
Lupton | | Change Station
Active Advisory: Special Statement Active Notice: Public Information Statement

Elev 916 ft 44.43 °N, 84.03 °W | Updated 25 seconds ago

Mostly Cloudy
Mostly Cloudy
63.5 °F
Feels Like 63.5 °F
N
7.8
Wind Variable Wind from South
Gusts 10.1 mph

Today
High -- | Low -- °F
--% Chance of Precip.
Yesterday
High -- | Low -- °F
Precip. -- in
Pressure 29.50 in
Visibility 10.0 miles
Clouds Mostly Cloudy 3200 ft
Mostly Cloudy 3900 ft
Dew Point 48 °F
Humidity 57%
Rainfall 0.00 in
Snow Depth Not available.
6:32 AM 8:36 PM
Waxing Crescent, 3% visible
METAR KHTL 271953Z AUTO 23016G26KT 10SM BKN032 BKN039 13/05 A2949 RMK AO2 PK WND 22029/1904 SLP988 T01280050
Pressure 29.50 in
Visibility 10.0 miles
Clouds Mostly Cloudy 3200 ft
Mostly Cloudy 3900 ft
Dew Point 48 °F
Humidity 57%
Rainfall 0.00 in
Snow Depth Not available.
6:32 AM 8:36 PM
Waxing Crescent, 3% visible
METAR KHTL 271953Z AUTO 23016G26KT 10SM BKN032 BKN039 13/05 A2949 RMK AO2 PK WND 22029/1904 SLP988 T01280050

Get Your Daily Forecast Email!

Thanks for signing up!

Be on the lookout for a verification email in your inbox.

You'll start receiving severe weather alerts in your inbox..

×

10-Day Weather Forecast

Almanac

Astronomy

Apr. 27, 2017 Rise Set
Actual Time
Civil Twilight
Nautical Twilight
Astronomical Twilight
Moon
Length of Visible Light
Length of Day
Tomorrow will be .
, % of the Moon is Illuminated

Today's Extremes

State Highs State Lows

Community

WunderPhotos

WunderBlog® & News

Nearby

Air Quality

  Air Quality AQ Index Pollutant
Not available.

Snow Depth

Station Depth Elevation

Earthquake Activity

City Distance Mag. Time & Date
Minimum magnitude displayed is 2.5.

Coastal Water Temperatures

Place Temperature

Stations

Nearby Weather Stations

Station Location Temp. Windchill Dew Point Humidity Wind Precip. Elev Updated Type
                   

Watches & Warnings

Special Statement
Issued: 3:01 PM EDT Apr. 27, 2017 – National Weather Service

... Strong gusty winds to continue through the afternoon...

Wind gusts to 40 mph will continue across the region this
afternoon. A strong storm moving over Lake Michigan was bringing
the winds to the area. This storm will move north this afternoon
and into Canada tonight. Expect the winds to die down some late
this afternoon with gusts to 30 mph expected and then even more
overnight as the storm moves away.

The strong winds can pick up light object outdoors and make
driving difficult for high profile vehicles. Use caution if
outdoors this afternoon.